Terminal Aerodrome Forecast
Issued by NWS

Home | Current Version | Previous Version | Text Only | Print | Product List | Glossary On
Versions: 1 2 3 4 5 6 7 8 9 10 11 12 13 14 15 16 17 18 19 20 21 22 23
000
FTUS45 KBOI 222047 AAA
TAFMYL
TAF AMD
KMYL 222047Z 2221/2318 32006KT P6SM VCSH FEW040 BKN100
     FM230300 VRB03KT P6SM SCT100
     FM231200 VRB03KT P6SM VCFG SKC=

USA.gov is the U.S. government's official web portal to all federal, state and local government web resources and services.